AirNav   Everest Fuels
 
 554 users online  

9WI1 Black Otter Airport
Hortonville, Wisconsin, USA

GOING TO HORTONVILLE?


FAA INFORMATION EFFECTIVE 26 JANUARY 2023

Location

FAA Identifier: 9WI1
Lat/Long: 44-19-46.0000N 088-37-25.0000W
44-19.766667N 088-37.416667W
44.3294444,-88.6236111
(estimated)
Elevation: 805 ft. / 245 m (estimated)
Variation: 01W (1985)
From city: 1 mile E of HORTONVILLE, WI
Time zone: UTC -6 (UTC -5 during Daylight Saving Time)
Zip code: 54944

Airport Operations

Airport use: Private use. Permission required prior to landing
Activation date: 02/1978
Control tower: no
ARTCC: MINNEAPOLIS CENTER
FSS: GREEN BAY FLIGHT SERVICE STATION
Attendance: UNATNDD
Wind indicator: yes
Segmented circle: no

Airport Communications

WX AWOS-3 at ATW (6 nm SE): PHONE 920-832-2597
WX AWOS-3 at PCZ (17 nm W): 118.625 (920-867-2407)
WX AWOS-3 at CLI (18 nm N): 120.675 (715-823-7691)

Nearby radio navigation aids

VOR radial/distance  VOR name  Freq  Var
OSHr350/20.5OSHKOSH VORTAC116.7502E
GRBr233/22.8GREEN BAY VORTAC115.5001E

 
NDB name  Hdg/Dist  Freq  Var  ID
KOOKY307/11.840702WAQ .- --.-

Airport Services

Runway Information

Runway 9/27

Dimensions: 1500 x 60 ft. / 457 x 18 m
Surface: turf
RUNWAY 9  RUNWAY 27
Traffic pattern: rightright
Displaced threshold: 150 ft.400 ft.
Obstructions: 50 ft. tree, 600 ft. from runwaynone

Airport Ownership and Management from official FAA records

Ownership: Privately-owned
Owner: ROBERT HARVEY
159 S. LAKE ST
HORTONVILLE, WI 54944
Phone (920) 419-8018
Manager: ROBERT HARVEY
159 S. LAKE ST
HORTONVILLE, WI 54944
Phone (920) 419-8018

Airport Operational Statistics

Aircraft based on the field: 2
Single engine airplanes: 2
    

Additional Remarks

FOR CD CTC MINNEAPOLIS ARTCC AT 651-463-5588.

Instrument Procedures

There are no published instrument procedures at 9WI1.

Some nearby airports with instrument procedures:

KATW - Appleton International Airport (6 nm SE)
KPCZ - Waupaca Municipal Airport (17 nm W)
KCLI - Clintonville Municipal Airport (18 nm N)
KOSH - Wittman Regional Airport (21 nm S)
KGRB - Green Bay/Austin Straubel International Airport (23 nm NE)
 
Loc | Ops | Rwys | IFR | FBO | Links
Com | Nav | Svcs | Stats | Notes
Area around 9WI1 (Black Otter Airport)
 
Road maps at: MapQuest Bing Google
 
Aerial photo
No photo
 
Sectional chart

 
Airport distance calculator
Flying to Black Otter Airport? Find the distance to fly.

From to 9WI1

Sunrise and sunset
Times for 09-Feb-2023
 Local
(UTC-6)
 Zulu
(UTC)
Morning civil twilight06:3412:34
Sunrise07:0413:04
Sunset17:1423:14
Evening civil twilight17:4423:44

Current date and time
Zulu (UTC)  09-Feb-2023 08:14:21
Local (UTC-6)  09-Feb-2023 02:14:21
 
METAR
KATW 
7nm SE 
090755Z AUTO 13004KT 10SM CLR 00/M03 A2993 RMK AO2
KCLI 
17nm N 
090755Z AUTO 00000KT 10SM CLR M02/M03 A2997 RMK AO2 T10171029
KPCZ 
17nm W 
090755Z AUTO 00000KT 10SM CLR 00/M02 A2996 RMK AO2 T10011020
TAF
KATW 
7nm SE 
090520Z 0906/1006 16003KT P6SM -SHSN OVC200 FM091400 03010G19KT 4SM -SHSN OVC035 FM091800 01014G25KT 1/2SM SHSN OVC005 FM092200 33014G26KT 3SM -SHSN OVC008 FM100000 32015G24KT P6SM -SHSN BKN023 FM100400 32013G23KT P6SM BKN035
NOTAMs
Click for the latest NOTAMs
NOTAMs are issued by the DoD/FAA and will open in a separate window not controlled by AirNav.

 

 
 

Would you like to see your business listed on this page?

 If your business provides an interesting product or service to pilots, flight crews, aircraft, or users of the Black Otter Airport, you should consider listing it here.  To start the listing process, click on the button below
 
Add a business
 

Other Pages about Black Otter Airport

Update a link
 
Copyright © AirNav, LLC. All rights reserved. Privacy Policy  Contact